KDAL/DAL METAR and TAF weather

Enter ICAO airport designator
Station Type Date Time Source
KDAL METAR 2019/10/16 18:53 UTC NOAA

KDAL 161853Z 35009KT 10SM FEW160 BKN250 20/02 A3017 RMK AO2 SLP213 T02000022 $


Station Type Date Time Source
KDAL Decoded METAR 2019/10/16 18:53 UTC NOAA

DALLAS LOVE FIELD, TX, United States (KDAL) 32-51N 096-51W 158M
Oct 16, 2019 - 02:53 PM EDT / 2019.10.16 1853 UTC
Wind: from the N (350 degrees) at 10 MPH (9 KT):0
Visibility: 10 mile(s):0
Sky conditions: mostly cloudy
Temperature: 68.0 F (20.0 C)
Dew Point: 36.0 F (2.2 C)
Relative Humidity: 30%
Pressure (altimeter): 30.17 in. Hg (1021 hPa)
ob: KDAL 161853Z 35009KT 10SM FEW160 BKN250 20/02 A3017 RMK AO2 SLP213 T02000022
cycle: 19

Station Type Date Time Source
KDAL TAF 2019/10/16 18:24 UTC NOAA

TAF KDAL 161722Z 1618/1718 01011KT P6SM SCT250
FM170200 03004KT P6SM BKN250
FM171300 13003KT P6SM FEW250

Example: see airport list